sensor_id;sensor_type;location;lat;lon;timestamp;P1;durP1;ratioP1;P2;durP2;ratioP2
69083;SDS011;56185;48.526;9.044;2024-03-08T00:01:55;24.53;;;13.93;;
69083;SDS011;56185;48.526;9.044;2024-03-08T00:04:20;23.98;;;14.25;;
69083;SDS011;56185;48.526;9.044;2024-03-08T00:06:46;24.67;;;14.98;;
69083;SDS011;56185;48.526;9.044;2024-03-08T00:09:11;23.80;;;14.85;;
69083;SDS011;56185;48.526;9.044;2024-03-08T00:11:37;23.77;;;14.43;;
69083;SDS011;56185;48.526;9.044;2024-03-08T00:14:02;26.25;;;15.32;;
69083;SDS011;56185;48.526;9.044;2024-03-08T00:16:28;26.52;;;14.50;;
69083;SDS011;56185;48.526;9.044;2024-03-08T00:18:53;26.20;;;14.90;;
69083;SDS011;56185;48.526;9.044;2024-03-08T00:21:18;27.60;;;15.17;;
69083;SDS011;56185;48.526;9.044;2024-03-08T00:23:43;28.77;;;16.70;;
69083;SDS011;56185;48.526;9.044;2024-03-08T00:26:09;27.37;;;16.00;;
69083;SDS011;56185;48.526;9.044;2024-03-08T00:28:34;27.65;;;15.00;;
69083;SDS011;56185;48.526;9.044;2024-03-08T00:30:59;25.37;;;14.93;;
69083;SDS011;56185;48.526;9.044;2024-03-08T00:33:25;23.10;;;14.63;;
69083;SDS011;56185;48.526;9.044;2024-03-08T00:35:51;23.70;;;14.95;;
69083;SDS011;56185;48.526;9.044;2024-03-08T00:38:16;24.27;;;14.90;;
69083;SDS011;56185;48.526;9.044;2024-03-08T00:40:41;24.33;;;14.55;;
69083;SDS011;56185;48.526;9.044;2024-03-08T00:43:06;24.25;;;14.65;;
69083;SDS011;56185;48.526;9.044;2024-03-08T00:45:31;26.63;;;15.13;;
69083;SDS011;56185;48.526;9.044;2024-03-08T00:47:57;27.55;;;16.30;;
69083;SDS011;56185;48.526;9.044;2024-03-08T00:50:22;25.70;;;15.18;;
69083;SDS011;56185;48.526;9.044;2024-03-08T00:52:47;25.02;;;15.05;;
69083;SDS011;56185;48.526;9.044;2024-03-08T00:55:13;24.92;;;14.27;;
69083;SDS011;56185;48.526;9.044;2024-03-08T00:57:38;24.33;;;14.47;;
69083;SDS011;56185;48.526;9.044;2024-03-08T01:00:04;27.50;;;16.05;;
69083;SDS011;56185;48.526;9.044;2024-03-08T01:02:30;22.48;;;13.68;;
69083;SDS011;56185;48.526;9.044;2024-03-08T01:04:55;24.52;;;14.80;;
69083;SDS011;56185;48.526;9.044;2024-03-08T01:07:20;22.97;;;14.47;;
69083;SDS011;56185;48.526;9.044;2024-03-08T01:09:46;24.53;;;13.87;;
69083;SDS011;56185;48.526;9.044;2024-03-08T01:12:11;22.80;;;13.48;;
69083;SDS011;56185;48.526;9.044;2024-03-08T01:14:36;24.98;;;14.40;;
69083;SDS011;56185;48.526;9.044;2024-03-08T01:17:01;22.10;;;13.70;;
69083;SDS011;56185;48.526;9.044;2024-03-08T01:19:26;27.98;;;14.30;;
69083;SDS011;56185;48.526;9.044;2024-03-08T01:21:52;24.97;;;14.87;;
69083;SDS011;56185;48.526;9.044;2024-03-08T01:24:17;24.63;;;14.60;;
69083;SDS011;56185;48.526;9.044;2024-03-08T01:26:42;24.83;;;14.40;;
69083;SDS011;56185;48.526;9.044;2024-03-08T01:29:08;22.38;;;13.90;;
69083;SDS011;56185;48.526;9.044;2024-03-08T01:31:33;23.58;;;14.20;;
69083;SDS011;56185;48.526;9.044;2024-03-08T01:33:59;23.10;;;14.13;;
69083;SDS011;56185;48.526;9.044;2024-03-08T01:36:24;23.30;;;13.77;;
69083;SDS011;56185;48.526;9.044;2024-03-08T01:38:49;26.50;;;13.85;;
69083;SDS011;56185;48.526;9.044;2024-03-08T01:41:15;25.25;;;13.63;;
69083;SDS011;56185;48.526;9.044;2024-03-08T01:43:40;24.27;;;13.90;;
69083;SDS011;56185;48.526;9.044;2024-03-08T01:46:05;24.87;;;14.73;;
69083;SDS011;56185;48.526;9.044;2024-03-08T01:48:33;26.42;;;14.32;;
69083;SDS011;56185;48.526;9.044;2024-03-08T01:50:59;24.15;;;14.23;;
69083;SDS011;56185;48.526;9.044;2024-03-08T01:53:24;24.20;;;13.77;;
69083;SDS011;56185;48.526;9.044;2024-03-08T01:55:53;22.33;;;13.27;;
69083;SDS011;56185;48.526;9.044;2024-03-08T01:58:20;27.05;;;14.23;;
69083;SDS011;56185;48.526;9.044;2024-03-08T02:00:47;24.42;;;14.02;;
69083;SDS011;56185;48.526;9.044;2024-03-08T02:03:13;24.95;;;14.15;;
69083;SDS011;56185;48.526;9.044;2024-03-08T02:05:40;24.77;;;14.20;;
69083;SDS011;56185;48.526;9.044;2024-03-08T02:08:06;25.52;;;13.52;;
69083;SDS011;56185;48.526;9.044;2024-03-08T02:10:31;25.33;;;14.52;;
69083;SDS011;56185;48.526;9.044;2024-03-08T02:12:56;25.70;;;14.43;;
69083;SDS011;56185;48.526;9.044;2024-03-08T02:15:22;25.83;;;14.68;;
69083;SDS011;56185;48.526;9.044;2024-03-08T02:17:47;24.10;;;14.32;;
69083;SDS011;56185;48.526;9.044;2024-03-08T02:20:12;24.63;;;13.73;;
69083;SDS011;56185;48.526;9.044;2024-03-08T02:22:37;25.38;;;13.80;;
69083;SDS011;56185;48.526;9.044;2024-03-08T02:25:03;27.25;;;15.15;;
69083;SDS011;56185;48.526;9.044;2024-03-08T02:27:29;25.17;;;13.30;;
69083;SDS011;56185;48.526;9.044;2024-03-08T02:29:55;23.50;;;13.87;;
69083;SDS011;56185;48.526;9.044;2024-03-08T02:32:21;24.52;;;13.93;;
69083;SDS011;56185;48.526;9.044;2024-03-08T02:34:46;28.17;;;14.48;;
69083;SDS011;56185;48.526;9.044;2024-03-08T02:37:12;25.73;;;14.27;;
69083;SDS011;56185;48.526;9.044;2024-03-08T02:39:37;24.50;;;13.95;;
69083;SDS011;56185;48.526;9.044;2024-03-08T02:42:02;24.88;;;14.20;;
69083;SDS011;56185;48.526;9.044;2024-03-08T02:44:27;24.33;;;13.63;;
69083;SDS011;56185;48.526;9.044;2024-03-08T02:46:53;24.33;;;14.02;;
69083;SDS011;56185;48.526;9.044;2024-03-08T02:49:18;23.80;;;14.38;;
69083;SDS011;56185;48.526;9.044;2024-03-08T02:51:43;23.40;;;13.75;;
69083;SDS011;56185;48.526;9.044;2024-03-08T02:54:08;26.33;;;13.93;;
69083;SDS011;56185;48.526;9.044;2024-03-08T02:56:34;25.00;;;14.43;;
69083;SDS011;56185;48.526;9.044;2024-03-08T02:58:59;23.77;;;14.20;;
69083;SDS011;56185;48.526;9.044;2024-03-08T03:01:24;23.00;;;13.10;;
69083;SDS011;56185;48.526;9.044;2024-03-08T03:03:49;23.80;;;13.77;;
69083;SDS011;56185;48.526;9.044;2024-03-08T03:06:15;25.90;;;14.27;;
69083;SDS011;56185;48.526;9.044;2024-03-08T03:08:40;25.50;;;14.50;;
69083;SDS011;56185;48.526;9.044;2024-03-08T03:11:05;21.80;;;13.55;;
69083;SDS011;56185;48.526;9.044;2024-03-08T03:13:30;26.63;;;15.55;;
69083;SDS011;56185;48.526;9.044;2024-03-08T03:15:56;24.73;;;13.77;;
69083;SDS011;56185;48.526;9.044;2024-03-08T03:18:21;23.42;;;13.90;;
69083;SDS011;56185;48.526;9.044;2024-03-08T03:20:46;22.63;;;13.77;;
69083;SDS011;56185;48.526;9.044;2024-03-08T03:23:11;23.92;;;14.02;;
69083;SDS011;56185;48.526;9.044;2024-03-08T03:25:37;25.75;;;14.65;;
69083;SDS011;56185;48.526;9.044;2024-03-08T03:28:02;21.83;;;12.77;;
69083;SDS011;56185;48.526;9.044;2024-03-08T03:30:28;24.83;;;14.50;;
69083;SDS011;56185;48.526;9.044;2024-03-08T03:32:53;24.23;;;13.63;;
69083;SDS011;56185;48.526;9.044;2024-03-08T03:35:19;23.02;;;14.07;;
69083;SDS011;56185;48.526;9.044;2024-03-08T03:37:45;23.50;;;13.77;;
69083;SDS011;56185;48.526;9.044;2024-03-08T03:40:10;22.23;;;12.45;;
69083;SDS011;56185;48.526;9.044;2024-03-08T03:42:37;23.15;;;13.43;;
69083;SDS011;56185;48.526;9.044;2024-03-08T03:45:02;22.38;;;12.77;;
69083;SDS011;56185;48.526;9.044;2024-03-08T03:47:27;25.33;;;14.60;;
69083;SDS011;56185;48.526;9.044;2024-03-08T03:49:53;22.73;;;13.13;;
69083;SDS011;56185;48.526;9.044;2024-03-08T03:52:18;26.33;;;13.67;;
69083;SDS011;56185;48.526;9.044;2024-03-08T03:54:43;23.63;;;12.65;;
69083;SDS011;56185;48.526;9.044;2024-03-08T03:57:08;23.50;;;13.47;;
69083;SDS011;56185;48.526;9.044;2024-03-08T03:59:33;24.45;;;13.77;;
69083;SDS011;56185;48.526;9.044;2024-03-08T04:01:59;22.77;;;12.80;;
69083;SDS011;56185;48.526;9.044;2024-03-08T04:04:24;21.80;;;12.93;;
69083;SDS011;56185;48.526;9.044;2024-03-08T04:06:49;26.10;;;13.97;;
69083;SDS011;56185;48.526;9.044;2024-03-08T04:09:14;24.02;;;13.32;;
69083;SDS011;56185;48.526;9.044;2024-03-08T04:11:40;23.25;;;12.65;;
69083;SDS011;56185;48.526;9.044;2024-03-08T04:14:05;22.87;;;13.27;;
69083;SDS011;56185;48.526;9.044;2024-03-08T04:16:30;21.77;;;13.23;;
69083;SDS011;56185;48.526;9.044;2024-03-08T04:18:56;25.05;;;13.23;;
69083;SDS011;56185;48.526;9.044;2024-03-08T04:21:22;25.23;;;13.95;;
69083;SDS011;56185;48.526;9.044;2024-03-08T04:23:47;22.70;;;13.13;;
69083;SDS011;56185;48.526;9.044;2024-03-08T04:26:13;20.23;;;12.63;;
69083;SDS011;56185;48.526;9.044;2024-03-08T04:28:38;24.02;;;13.30;;
69083;SDS011;56185;48.526;9.044;2024-03-08T04:31:04;23.20;;;13.57;;
69083;SDS011;56185;48.526;9.044;2024-03-08T04:33:29;26.42;;;14.70;;
69083;SDS011;56185;48.526;9.044;2024-03-08T04:35:54;24.67;;;13.95;;
69083;SDS011;56185;48.526;9.044;2024-03-08T04:38:19;22.73;;;13.05;;
69083;SDS011;56185;48.526;9.044;2024-03-08T04:40:45;23.15;;;13.63;;
69083;SDS011;56185;48.526;9.044;2024-03-08T04:43:10;22.58;;;13.48;;
69083;SDS011;56185;48.526;9.044;2024-03-08T04:45:36;26.15;;;14.75;;
69083;SDS011;56185;48.526;9.044;2024-03-08T04:48:01;23.45;;;13.27;;
69083;SDS011;56185;48.526;9.044;2024-03-08T04:50:26;24.48;;;13.93;;
69083;SDS011;56185;48.526;9.044;2024-03-08T04:52:52;27.83;;;15.32;;
69083;SDS011;56185;48.526;9.044;2024-03-08T04:55:17;26.38;;;15.57;;
69083;SDS011;56185;48.526;9.044;2024-03-08T04:57:42;26.70;;;15.00;;
69083;SDS011;56185;48.526;9.044;2024-03-08T05:00:08;23.88;;;13.50;;
69083;SDS011;56185;48.526;9.044;2024-03-08T05:02:33;26.50;;;14.55;;
69083;SDS011;56185;48.526;9.044;2024-03-08T05:04:58;24.98;;;13.80;;
69083;SDS011;56185;48.526;9.044;2024-03-08T05:07:24;22.13;;;12.85;;
69083;SDS011;56185;48.526;9.044;2024-03-08T05:09:49;22.45;;;13.38;;
69083;SDS011;56185;48.526;9.044;2024-03-08T05:12:14;24.98;;;14.85;;
69083;SDS011;56185;48.526;9.044;2024-03-08T05:14:39;24.88;;;14.30;;
69083;SDS011;56185;48.526;9.044;2024-03-08T05:17:05;25.53;;;14.83;;
69083;SDS011;56185;48.526;9.044;2024-03-08T05:19:30;28.17;;;14.50;;
69083;SDS011;56185;48.526;9.044;2024-03-08T05:21:55;26.05;;;14.95;;
69083;SDS011;56185;48.526;9.044;2024-03-08T05:24:20;27.77;;;15.88;;
69083;SDS011;56185;48.526;9.044;2024-03-08T05:26:46;26.98;;;16.05;;
69083;SDS011;56185;48.526;9.044;2024-03-08T05:29:11;27.08;;;16.25;;
69083;SDS011;56185;48.526;9.044;2024-03-08T05:31:46;24.10;;;14.32;;
69083;SDS011;56185;48.526;9.044;2024-03-08T05:34:13;26.35;;;14.68;;
69083;SDS011;56185;48.526;9.044;2024-03-08T05:36:39;24.83;;;13.50;;
69083;SDS011;56185;48.526;9.044;2024-03-08T05:39:04;24.25;;;14.20;;
69083;SDS011;56185;48.526;9.044;2024-03-08T05:41:29;24.58;;;14.32;;
69083;SDS011;56185;48.526;9.044;2024-03-08T05:43:55;24.30;;;13.90;;
69083;SDS011;56185;48.526;9.044;2024-03-08T05:46:20;28.13;;;14.50;;
69083;SDS011;56185;48.526;9.044;2024-03-08T05:48:45;23.27;;;14.40;;
69083;SDS011;56185;48.526;9.044;2024-03-08T05:51:10;27.88;;;13.85;;
69083;SDS011;56185;48.526;9.044;2024-03-08T05:53:35;25.25;;;14.30;;
69083;SDS011;56185;48.526;9.044;2024-03-08T05:56:01;24.98;;;14.45;;
69083;SDS011;56185;48.526;9.044;2024-03-08T05:58:26;26.75;;;15.00;;
69083;SDS011;56185;48.526;9.044;2024-03-08T06:00:51;25.77;;;14.55;;
69083;SDS011;56185;48.526;9.044;2024-03-08T06:03:16;24.40;;;13.93;;
69083;SDS011;56185;48.526;9.044;2024-03-08T06:05:42;25.67;;;14.95;;
69083;SDS011;56185;48.526;9.044;2024-03-08T06:08:07;27.80;;;15.13;;
69083;SDS011;56185;48.526;9.044;2024-03-08T06:10:32;24.30;;;14.18;;
69083;SDS011;56185;48.526;9.044;2024-03-08T06:12:58;24.75;;;13.75;;
69083;SDS011;56185;48.526;9.044;2024-03-08T06:15:23;32.55;;;16.13;;
69083;SDS011;56185;48.526;9.044;2024-03-08T06:17:49;29.73;;;16.27;;
69083;SDS011;56185;48.526;9.044;2024-03-08T06:20:14;25.50;;;14.82;;
69083;SDS011;56185;48.526;9.044;2024-03-08T06:22:39;24.63;;;14.05;;
69083;SDS011;56185;48.526;9.044;2024-03-08T06:25:05;23.85;;;13.68;;
69083;SDS011;56185;48.526;9.044;2024-03-08T06:27:30;25.48;;;14.38;;
69083;SDS011;56185;48.526;9.044;2024-03-08T06:29:56;24.17;;;14.02;;
69083;SDS011;56185;48.526;9.044;2024-03-08T06:32:21;28.58;;;14.95;;
69083;SDS011;56185;48.526;9.044;2024-03-08T06:34:46;25.53;;;14.53;;
69083;SDS011;56185;48.526;9.044;2024-03-08T06:37:11;27.53;;;15.17;;
69083;SDS011;56185;48.526;9.044;2024-03-08T06:39:37;24.23;;;13.85;;
69083;SDS011;56185;48.526;9.044;2024-03-08T06:42:02;24.98;;;14.18;;
69083;SDS011;56185;48.526;9.044;2024-03-08T06:44:27;23.35;;;14.25;;
69083;SDS011;56185;48.526;9.044;2024-03-08T06:46:52;24.77;;;13.95;;
69083;SDS011;56185;48.526;9.044;2024-03-08T06:49:18;23.70;;;14.18;;
69083;SDS011;56185;48.526;9.044;2024-03-08T06:51:43;23.23;;;13.82;;
69083;SDS011;56185;48.526;9.044;2024-03-08T06:54:08;22.27;;;13.50;;
69083;SDS011;56185;48.526;9.044;2024-03-08T06:56:34;26.42;;;14.63;;
69083;SDS011;56185;48.526;9.044;2024-03-08T06:58:59;26.55;;;14.82;;
69083;SDS011;56185;48.526;9.044;2024-03-08T07:01:25;24.42;;;13.85;;
69083;SDS011;56185;48.526;9.044;2024-03-08T07:03:50;24.10;;;14.50;;
69083;SDS011;56185;48.526;9.044;2024-03-08T07:06:15;27.63;;;14.10;;
69083;SDS011;56185;48.526;9.044;2024-03-08T07:08:42;23.73;;;13.15;;
69083;SDS011;56185;48.526;9.044;2024-03-08T07:11:07;26.73;;;14.38;;
69083;SDS011;56185;48.526;9.044;2024-03-08T07:13:32;24.55;;;14.65;;
69083;SDS011;56185;48.526;9.044;2024-03-08T07:15:58;25.10;;;14.17;;
69083;SDS011;56185;48.526;9.044;2024-03-08T07:18:23;24.83;;;14.17;;
69083;SDS011;56185;48.526;9.044;2024-03-08T07:20:48;25.30;;;14.03;;
69083;SDS011;56185;48.526;9.044;2024-03-08T07:23:13;26.52;;;14.65;;
69083;SDS011;56185;48.526;9.044;2024-03-08T07:25:38;23.80;;;13.75;;
69083;SDS011;56185;48.526;9.044;2024-03-08T07:28:04;23.60;;;13.77;;
69083;SDS011;56185;48.526;9.044;2024-03-08T07:30:29;24.02;;;14.07;;
69083;SDS011;56185;48.526;9.044;2024-03-08T07:32:54;22.98;;;14.18;;
69083;SDS011;56185;48.526;9.044;2024-03-08T07:35:20;25.77;;;14.37;;
69083;SDS011;56185;48.526;9.044;2024-03-08T07:37:45;24.92;;;13.63;;
69083;SDS011;56185;48.526;9.044;2024-03-08T07:40:10;24.43;;;14.43;;
69083;SDS011;56185;48.526;9.044;2024-03-08T07:42:36;25.27;;;13.68;;
69083;SDS011;56185;48.526;9.044;2024-03-08T07:45:01;23.35;;;13.90;;
69083;SDS011;56185;48.526;9.044;2024-03-08T07:47:26;28.52;;;15.27;;
69083;SDS011;56185;48.526;9.044;2024-03-08T07:49:52;24.67;;;14.07;;
69083;SDS011;56185;48.526;9.044;2024-03-08T07:52:17;25.75;;;14.77;;
69083;SDS011;56185;48.526;9.044;2024-03-08T07:54:42;23.33;;;13.48;;
69083;SDS011;56185;48.526;9.044;2024-03-08T07:57:07;25.75;;;14.85;;
69083;SDS011;56185;48.526;9.044;2024-03-08T07:59:32;27.17;;;14.70;;
69083;SDS011;56185;48.526;9.044;2024-03-08T08:01:58;24.58;;;14.57;;
69083;SDS011;56185;48.526;9.044;2024-03-08T08:04:23;24.30;;;13.93;;
69083;SDS011;56185;48.526;9.044;2024-03-08T08:06:48;26.00;;;14.13;;
69083;SDS011;56185;48.526;9.044;2024-03-08T08:09:13;22.00;;;13.68;;
69083;SDS011;56185;48.526;9.044;2024-03-08T08:11:39;28.92;;;18.02;;
69083;SDS011;56185;48.526;9.044;2024-03-08T08:14:05;23.17;;;13.68;;
69083;SDS011;56185;48.526;9.044;2024-03-08T08:16:30;24.83;;;14.37;;
69083;SDS011;56185;48.526;9.044;2024-03-08T08:18:55;20.90;;;12.43;;
69083;SDS011;56185;48.526;9.044;2024-03-08T08:21:20;24.63;;;14.40;;
69083;SDS011;56185;48.526;9.044;2024-03-08T08:23:45;21.20;;;12.57;;
69083;SDS011;56185;48.526;9.044;2024-03-08T08:26:11;22.07;;;12.93;;
69083;SDS011;56185;48.526;9.044;2024-03-08T08:28:36;24.83;;;14.32;;
69083;SDS011;56185;48.526;9.044;2024-03-08T08:31:01;24.45;;;14.07;;
69083;SDS011;56185;48.526;9.044;2024-03-08T08:33:27;21.85;;;13.15;;
69083;SDS011;56185;48.526;9.044;2024-03-08T08:35:52;23.75;;;14.27;;
69083;SDS011;56185;48.526;9.044;2024-03-08T08:38:17;22.40;;;13.17;;
69083;SDS011;56185;48.526;9.044;2024-03-08T08:40:42;24.52;;;12.55;;
69083;SDS011;56185;48.526;9.044;2024-03-08T08:43:08;23.13;;;13.15;;
69083;SDS011;56185;48.526;9.044;2024-03-08T08:45:33;22.55;;;12.95;;
69083;SDS011;56185;48.526;9.044;2024-03-08T08:47:58;22.40;;;12.95;;
69083;SDS011;56185;48.526;9.044;2024-03-08T08:50:24;26.02;;;13.63;;
69083;SDS011;56185;48.526;9.044;2024-03-08T08:52:49;23.13;;;13.63;;
69083;SDS011;56185;48.526;9.044;2024-03-08T08:55:20;22.58;;;13.20;;
69083;SDS011;56185;48.526;9.044;2024-03-08T08:57:45;20.85;;;12.18;;
69083;SDS011;56185;48.526;9.044;2024-03-08T09:00:11;23.92;;;13.35;;
69083;SDS011;56185;48.526;9.044;2024-03-08T09:02:36;21.85;;;13.60;;
69083;SDS011;56185;48.526;9.044;2024-03-08T09:05:02;24.10;;;12.80;;
69083;SDS011;56185;48.526;9.044;2024-03-08T09:07:27;21.25;;;12.50;;
69083;SDS011;56185;48.526;9.044;2024-03-08T09:09:52;22.67;;;12.00;;
69083;SDS011;56185;48.526;9.044;2024-03-08T09:12:18;22.73;;;13.15;;
69083;SDS011;56185;48.526;9.044;2024-03-08T09:14:43;20.88;;;12.18;;
69083;SDS011;56185;48.526;9.044;2024-03-08T09:17:08;20.17;;;11.93;;
69083;SDS011;56185;48.526;9.044;2024-03-08T09:19:34;21.33;;;12.27;;
69083;SDS011;56185;48.526;9.044;2024-03-08T09:22:00;20.15;;;12.95;;
69083;SDS011;56185;48.526;9.044;2024-03-08T09:24:25;19.20;;;11.57;;
69083;SDS011;56185;48.526;9.044;2024-03-08T09:26:50;20.50;;;11.83;;
69083;SDS011;56185;48.526;9.044;2024-03-08T09:29:15;20.35;;;12.38;;
69083;SDS011;56185;48.526;9.044;2024-03-08T09:31:41;19.83;;;11.82;;
69083;SDS011;56185;48.526;9.044;2024-03-08T09:34:06;21.13;;;12.23;;
69083;SDS011;56185;48.526;9.044;2024-03-08T09:36:31;18.53;;;11.40;;
69083;SDS011;56185;48.526;9.044;2024-03-08T09:38:56;21.17;;;11.98;;
69083;SDS011;56185;48.526;9.044;2024-03-08T09:41:22;21.45;;;13.27;;
69083;SDS011;56185;48.526;9.044;2024-03-08T09:43:47;19.60;;;12.00;;
69083;SDS011;56185;48.526;9.044;2024-03-08T09:46:12;21.42;;;12.65;;
69083;SDS011;56185;48.526;9.044;2024-03-08T09:48:40;19.60;;;11.95;;
69083;SDS011;56185;48.526;9.044;2024-03-08T09:51:05;19.25;;;11.93;;
69083;SDS011;56185;48.526;9.044;2024-03-08T09:53:31;19.45;;;12.13;;
69083;SDS011;56185;48.526;9.044;2024-03-08T09:55:56;19.38;;;12.05;;
69083;SDS011;56185;48.526;9.044;2024-03-08T09:58:21;22.98;;;12.48;;
69083;SDS011;56185;48.526;9.044;2024-03-08T10:00:47;19.77;;;12.35;;
69083;SDS011;56185;48.526;9.044;2024-03-08T10:03:12;22.55;;;13.13;;
69083;SDS011;56185;48.526;9.044;2024-03-08T10:05:38;21.40;;;13.35;;
69083;SDS011;56185;48.526;9.044;2024-03-08T10:08:04;19.38;;;12.23;;
69083;SDS011;56185;48.526;9.044;2024-03-08T10:10:30;21.02;;;12.73;;
69083;SDS011;56185;48.526;9.044;2024-03-08T10:12:55;18.45;;;11.63;;
69083;SDS011;56185;48.526;9.044;2024-03-08T10:15:20;18.55;;;12.13;;
69083;SDS011;56185;48.526;9.044;2024-03-08T10:17:46;19.53;;;11.77;;
69083;SDS011;56185;48.526;9.044;2024-03-08T10:20:15;17.73;;;11.63;;
69083;SDS011;56185;48.526;9.044;2024-03-08T10:22:44;17.75;;;11.00;;
69083;SDS011;56185;48.526;9.044;2024-03-08T10:25:10;18.88;;;11.32;;
69083;SDS011;56185;48.526;9.044;2024-03-08T10:27:35;21.45;;;12.18;;
69083;SDS011;56185;48.526;9.044;2024-03-08T10:30:01;19.38;;;11.85;;
69083;SDS011;56185;48.526;9.044;2024-03-08T10:32:26;20.00;;;12.20;;
69083;SDS011;56185;48.526;9.044;2024-03-08T10:34:51;19.13;;;11.68;;
69083;SDS011;56185;48.526;9.044;2024-03-08T10:37:17;18.15;;;10.98;;
69083;SDS011;56185;48.526;9.044;2024-03-08T10:39:48;18.98;;;11.63;;
69083;SDS011;56185;48.526;9.044;2024-03-08T10:42:28;16.70;;;11.32;;
69083;SDS011;56185;48.526;9.044;2024-03-08T10:45:37;17.27;;;11.13;;
69083;SDS011;56185;48.526;9.044;2024-03-08T10:48:09;15.20;;;9.93;;
69083;SDS011;56185;48.526;9.044;2024-03-08T10:50:46;17.77;;;10.32;;
69083;SDS011;56185;48.526;9.044;2024-03-08T10:53:13;19.17;;;11.15;;
69083;SDS011;56185;48.526;9.044;2024-03-08T10:55:39;16.20;;;10.07;;
69083;SDS011;56185;48.526;9.044;2024-03-08T10:58:05;15.38;;;10.30;;
69083;SDS011;56185;48.526;9.044;2024-03-08T11:00:30;17.80;;;10.97;;
69083;SDS011;56185;48.526;9.044;2024-03-08T11:02:56;16.27;;;10.82;;
69083;SDS011;56185;48.526;9.044;2024-03-08T11:05:30;16.20;;;10.90;;
69083;SDS011;56185;48.526;9.044;2024-03-08T11:10:47;21.98;;;11.10;;
69083;SDS011;56185;48.526;9.044;2024-03-08T11:16:07;16.13;;;10.30;;
69083;SDS011;56185;48.526;9.044;2024-03-08T11:18:35;17.02;;;10.93;;
69083;SDS011;56185;48.526;9.044;2024-03-08T11:21:10;18.48;;;11.40;;
69083;SDS011;56185;48.526;9.044;2024-03-08T11:23:36;18.10;;;10.90;;
69083;SDS011;56185;48.526;9.044;2024-03-08T11:26:01;18.02;;;11.00;;
69083;SDS011;56185;48.526;9.044;2024-03-08T11:28:26;18.27;;;11.73;;
69083;SDS011;56185;48.526;9.044;2024-03-08T11:33:23;18.65;;;11.70;;
69083;SDS011;56185;48.526;9.044;2024-03-08T11:35:48;18.27;;;11.25;;
69083;SDS011;56185;48.526;9.044;2024-03-08T11:38:13;21.48;;;11.38;;
69083;SDS011;56185;48.526;9.044;2024-03-08T11:40:39;16.10;;;10.53;;
69083;SDS011;56185;48.526;9.044;2024-03-08T11:43:04;15.07;;;10.25;;
69083;SDS011;56185;48.526;9.044;2024-03-08T11:45:29;17.80;;;11.23;;
69083;SDS011;56185;48.526;9.044;2024-03-08T11:47:54;18.47;;;11.20;;
69083;SDS011;56185;48.526;9.044;2024-03-08T11:50:20;16.10;;;10.13;;
69083;SDS011;56185;48.526;9.044;2024-03-08T11:52:45;17.73;;;10.65;;
69083;SDS011;56185;48.526;9.044;2024-03-08T11:55:10;17.03;;;10.30;;
69083;SDS011;56185;48.526;9.044;2024-03-08T11:57:36;16.38;;;10.85;;
69083;SDS011;56185;48.526;9.044;2024-03-08T12:00:02;17.77;;;11.32;;
69083;SDS011;56185;48.526;9.044;2024-03-08T12:02:27;18.90;;;10.75;;
69083;SDS011;56185;48.526;9.044;2024-03-08T12:04:56;16.38;;;11.23;;
69083;SDS011;56185;48.526;9.044;2024-03-08T12:07:22;18.17;;;11.50;;
69083;SDS011;56185;48.526;9.044;2024-03-08T12:12:49;17.00;;;10.95;;
69083;SDS011;56185;48.526;9.044;2024-03-08T12:15:16;17.13;;;10.85;;
69083;SDS011;56185;48.526;9.044;2024-03-08T12:17:41;16.33;;;10.57;;
69083;SDS011;56185;48.526;9.044;2024-03-08T12:20:14;19.27;;;11.65;;
69083;SDS011;56185;48.526;9.044;2024-03-08T12:22:41;17.90;;;11.40;;
69083;SDS011;56185;48.526;9.044;2024-03-08T12:25:07;17.98;;;11.18;;
69083;SDS011;56185;48.526;9.044;2024-03-08T12:27:33;20.58;;;11.52;;
69083;SDS011;56185;48.526;9.044;2024-03-08T12:29:59;22.10;;;11.63;;
69083;SDS011;56185;48.526;9.044;2024-03-08T12:32:24;17.23;;;10.97;;
69083;SDS011;56185;48.526;9.044;2024-03-08T12:34:52;20.75;;;12.10;;
69083;SDS011;56185;48.526;9.044;2024-03-08T12:37:17;17.65;;;11.93;;
69083;SDS011;56185;48.526;9.044;2024-03-08T12:39:43;18.67;;;11.80;;
69083;SDS011;56185;48.526;9.044;2024-03-08T12:42:09;17.92;;;11.18;;
69083;SDS011;56185;48.526;9.044;2024-03-08T12:44:34;18.13;;;12.20;;
69083;SDS011;56185;48.526;9.044;2024-03-08T12:46:59;17.70;;;11.07;;
69083;SDS011;56185;48.526;9.044;2024-03-08T12:49:25;17.65;;;11.30;;
69083;SDS011;56185;48.526;9.044;2024-03-08T12:51:50;19.58;;;11.80;;
69083;SDS011;56185;48.526;9.044;2024-03-08T12:54:15;16.20;;;10.95;;
69083;SDS011;56185;48.526;9.044;2024-03-08T12:56:40;18.20;;;11.20;;
69083;SDS011;56185;48.526;9.044;2024-03-08T12:59:06;17.10;;;11.18;;
69083;SDS011;56185;48.526;9.044;2024-03-08T13:01:33;17.90;;;11.32;;
69083;SDS011;56185;48.526;9.044;2024-03-08T13:03:58;17.25;;;11.27;;
69083;SDS011;56185;48.526;9.044;2024-03-08T13:06:24;17.55;;;11.45;;
69083;SDS011;56185;48.526;9.044;2024-03-08T13:08:52;17.73;;;11.02;;
69083;SDS011;56185;48.526;9.044;2024-03-08T13:11:17;20.00;;;11.23;;
69083;SDS011;56185;48.526;9.044;2024-03-08T13:13:43;17.65;;;10.90;;
69083;SDS011;56185;48.526;9.044;2024-03-08T13:16:08;16.70;;;10.88;;
69083;SDS011;56185;48.526;9.044;2024-03-08T13:18:36;18.85;;;12.20;;
69083;SDS011;56185;48.526;9.044;2024-03-08T13:21:02;17.83;;;11.68;;
69083;SDS011;56185;48.526;9.044;2024-03-08T13:23:28;16.83;;;10.68;;
69083;SDS011;56185;48.526;9.044;2024-03-08T13:25:53;17.10;;;11.23;;
69083;SDS011;56185;48.526;9.044;2024-03-08T13:28:19;22.47;;;11.57;;
69083;SDS011;56185;48.526;9.044;2024-03-08T13:30:44;18.10;;;12.15;;
69083;SDS011;56185;48.526;9.044;2024-03-08T13:33:09;17.63;;;12.10;;
69083;SDS011;56185;48.526;9.044;2024-03-08T13:35:34;18.87;;;11.60;;
69083;SDS011;56185;48.526;9.044;2024-03-08T13:37:59;18.67;;;11.13;;
69083;SDS011;56185;48.526;9.044;2024-03-08T13:40:25;17.03;;;11.23;;
69083;SDS011;56185;48.526;9.044;2024-03-08T13:42:50;18.87;;;11.77;;
69083;SDS011;56185;48.526;9.044;2024-03-08T13:45:15;17.80;;;11.45;;
69083;SDS011;56185;48.526;9.044;2024-03-08T13:47:41;18.70;;;11.15;;
69083;SDS011;56185;48.526;9.044;2024-03-08T13:50:07;18.33;;;11.30;;
69083;SDS011;56185;48.526;9.044;2024-03-08T13:52:33;17.65;;;11.35;;
69083;SDS011;56185;48.526;9.044;2024-03-08T13:55:00;16.77;;;11.35;;
69083;SDS011;56185;48.526;9.044;2024-03-08T13:57:25;16.35;;;11.35;;
69083;SDS011;56185;48.526;9.044;2024-03-08T13:59:51;17.42;;;11.40;;
69083;SDS011;56185;48.526;9.044;2024-03-08T14:02:16;16.33;;;11.03;;
69083;SDS011;56185;48.526;9.044;2024-03-08T14:04:41;18.15;;;11.05;;
69083;SDS011;56185;48.526;9.044;2024-03-08T14:07:07;17.10;;;11.23;;
69083;SDS011;56185;48.526;9.044;2024-03-08T14:09:32;16.58;;;10.63;;
69083;SDS011;56185;48.526;9.044;2024-03-08T14:11:57;18.27;;;10.70;;
69083;SDS011;56185;48.526;9.044;2024-03-08T14:14:23;16.63;;;10.95;;
69083;SDS011;56185;48.526;9.044;2024-03-08T14:16:48;14.07;;;10.17;;
69083;SDS011;56185;48.526;9.044;2024-03-08T14:19:14;16.38;;;10.52;;
69083;SDS011;56185;48.526;9.044;2024-03-08T14:21:39;16.90;;;10.65;;
69083;SDS011;56185;48.526;9.044;2024-03-08T14:24:05;15.55;;;10.50;;